sensor_id;sensor_type;location;lat;lon;timestamp;temperature;humidity
46766;DHT22;32527;51.986;5.842;2022-09-01T00:00:26;15.70;99.90
46766;DHT22;32527;51.986;5.842;2022-09-01T00:02:56;15.70;99.90
46766;DHT22;32527;51.986;5.842;2022-09-01T00:05:22;16.00;99.90
46766;DHT22;32527;51.986;5.842;2022-09-01T00:07:47;15.60;99.90
46766;DHT22;32527;51.986;5.842;2022-09-01T00:10:15;15.70;99.90
46766;DHT22;32527;51.986;5.842;2022-09-01T00:12:41;15.60;99.90
46766;DHT22;32527;51.986;5.842;2022-09-01T00:15:09;15.60;99.90
46766;DHT22;32527;51.986;5.842;2022-09-01T00:17:35;15.50;99.90
46766;DHT22;32527;51.986;5.842;2022-09-01T00:20:01;15.50;99.90
46766;DHT22;32527;51.986;5.842;2022-09-01T00:22:26;15.50;99.90
46766;DHT22;32527;51.986;5.842;2022-09-01T00:24:53;15.40;99.90
46766;DHT22;32527;51.986;5.842;2022-09-01T00:27:19;15.50;99.90
46766;DHT22;32527;51.986;5.842;2022-09-01T00:29:45;15.50;99.90
46766;DHT22;32527;51.986;5.842;2022-09-01T00:32:11;15.40;99.90
46766;DHT22;32527;51.986;5.842;2022-09-01T00:34:37;15.40;99.90
46766;DHT22;32527;51.986;5.842;2022-09-01T00:37:02;15.30;99.90
46766;DHT22;32527;51.986;5.842;2022-09-01T00:39:28;15.30;99.90
46766;DHT22;32527;51.986;5.842;2022-09-01T00:41:54;15.30;99.90
46766;DHT22;32527;51.986;5.842;2022-09-01T00:44:20;15.30;99.90
46766;DHT22;32527;51.986;5.842;2022-09-01T00:46:53;15.20;99.90
46766;DHT22;32527;51.986;5.842;2022-09-01T00:49:31;15.30;99.90
46766;DHT22;32527;51.986;5.842;2022-09-01T00:52:01;15.30;99.90
46766;DHT22;32527;51.986;5.842;2022-09-01T00:54:32;15.20;99.90
46766;DHT22;32527;51.986;5.842;2022-09-01T00:56:59;15.20;99.90
46766;DHT22;32527;51.986;5.842;2022-09-01T00:59:26;15.20;99.90
46766;DHT22;32527;51.986;5.842;2022-09-01T01:01:52;15.20;99.90
46766;DHT22;32527;51.986;5.842;2022-09-01T01:04:18;15.20;99.90
46766;DHT22;32527;51.986;5.842;2022-09-01T01:06:47;15.10;99.90
46766;DHT22;32527;51.986;5.842;2022-09-01T01:09:19;15.10;99.90
46766;DHT22;32527;51.986;5.842;2022-09-01T01:11:47;15.10;99.90
46766;DHT22;32527;51.986;5.842;2022-09-01T01:14:14;15.00;99.90
46766;DHT22;32527;51.986;5.842;2022-09-01T01:16:43;15.00;99.90
46766;DHT22;32527;51.986;5.842;2022-09-01T01:19:37;15.10;99.90
46766;DHT22;32527;51.986;5.842;2022-09-01T01:28:30;15.10;99.90
46766;DHT22;32527;51.986;5.842;2022-09-01T01:31:06;15.10;99.90
46766;DHT22;32527;51.986;5.842;2022-09-01T01:33:39;15.20;99.90
46766;DHT22;32527;51.986;5.842;2022-09-01T01:36:09;15.20;99.90
46766;DHT22;32527;51.986;5.842;2022-09-01T01:38:44;15.20;99.90
46766;DHT22;32527;51.986;5.842;2022-09-01T01:41:11;15.20;99.90
46766;DHT22;32527;51.986;5.842;2022-09-01T01:43:38;15.30;99.90
46766;DHT22;32527;51.986;5.842;2022-09-01T01:46:07;15.30;99.90
46766;DHT22;32527;51.986;5.842;2022-09-01T01:48:38;15.30;99.90
46766;DHT22;32527;51.986;5.842;2022-09-01T01:51:05;15.30;99.90
46766;DHT22;32527;51.986;5.842;2022-09-01T01:53:32;15.30;99.90
46766;DHT22;32527;51.986;5.842;2022-09-01T01:55:58;15.30;99.90
46766;DHT22;32527;51.986;5.842;2022-09-01T01:58:32;15.30;99.90
46766;DHT22;32527;51.986;5.842;2022-09-01T02:01:00;15.30;99.90
46766;DHT22;32527;51.986;5.842;2022-09-01T02:03:30;15.40;99.90
46766;DHT22;32527;51.986;5.842;2022-09-01T02:06:08;15.40;99.90
46766;DHT22;32527;51.986;5.842;2022-09-01T02:08:36;15.40;99.90
46766;DHT22;32527;51.986;5.842;2022-09-01T02:11:03;15.40;99.90
46766;DHT22;32527;51.986;5.842;2022-09-01T02:13:30;15.40;99.90
46766;DHT22;32527;51.986;5.842;2022-09-01T02:16:03;15.40;99.90
46766;DHT22;32527;51.986;5.842;2022-09-01T02:18:35;15.40;99.90
46766;DHT22;32527;51.986;5.842;2022-09-01T02:21:06;15.40;99.90
46766;DHT22;32527;51.986;5.842;2022-09-01T02:23:37;15.40;99.90
46766;DHT22;32527;51.986;5.842;2022-09-01T02:26:04;15.30;99.90
46766;DHT22;32527;51.986;5.842;2022-09-01T02:28:34;15.30;99.90
46766;DHT22;32527;51.986;5.842;2022-09-01T02:31:03;15.30;99.90
46766;DHT22;32527;51.986;5.842;2022-09-01T02:33:30;15.30;99.90
46766;DHT22;32527;51.986;5.842;2022-09-01T02:36:00;15.30;99.90
46766;DHT22;32527;51.986;5.842;2022-09-01T02:38:27;15.30;99.90
46766;DHT22;32527;51.986;5.842;2022-09-01T02:40:56;15.30;99.90
46766;DHT22;32527;51.986;5.842;2022-09-01T02:43:23;15.30;99.90
46766;DHT22;32527;51.986;5.842;2022-09-01T02:45:52;15.30;99.90
46766;DHT22;32527;51.986;5.842;2022-09-01T02:48:29;15.30;99.90
46766;DHT22;32527;51.986;5.842;2022-09-01T02:50:59;15.30;99.90
46766;DHT22;32527;51.986;5.842;2022-09-01T02:53:28;15.30;99.90
46766;DHT22;32527;51.986;5.842;2022-09-01T02:55:54;15.30;99.90
46766;DHT22;32527;51.986;5.842;2022-09-01T02:58:25;15.30;99.90
46766;DHT22;32527;51.986;5.842;2022-09-01T03:00:54;15.30;99.90
46766;DHT22;32527;51.986;5.842;2022-09-01T03:03:20;15.30;99.90
46766;DHT22;32527;51.986;5.842;2022-09-01T03:05:47;15.30;99.90
46766;DHT22;32527;51.986;5.842;2022-09-01T03:08:13;15.20;99.90
46766;DHT22;32527;51.986;5.842;2022-09-01T03:10:42;15.20;99.90
46766;DHT22;32527;51.986;5.842;2022-09-01T03:13:12;15.20;99.90
46766;DHT22;32527;51.986;5.842;2022-09-01T03:15:39;15.10;99.90
46766;DHT22;32527;51.986;5.842;2022-09-01T03:18:06;15.10;99.90
46766;DHT22;32527;51.986;5.842;2022-09-01T03:20:35;15.10;99.90
46766;DHT22;32527;51.986;5.842;2022-09-01T03:23:03;15.10;99.90
46766;DHT22;32527;51.986;5.842;2022-09-01T03:25:31;14.80;99.90
46766;DHT22;32527;51.986;5.842;2022-09-01T03:27:59;15.00;99.90
46766;DHT22;32527;51.986;5.842;2022-09-01T03:30:28;15.00;99.90
46766;DHT22;32527;51.986;5.842;2022-09-01T03:32:57;15.10;99.90
46766;DHT22;32527;51.986;5.842;2022-09-01T03:35:24;15.10;99.90
46766;DHT22;32527;51.986;5.842;2022-09-01T03:37:51;15.20;99.90
46766;DHT22;32527;51.986;5.842;2022-09-01T03:40:17;15.30;99.90
46766;DHT22;32527;51.986;5.842;2022-09-01T03:42:44;15.30;99.90
46766;DHT22;32527;51.986;5.842;2022-09-01T03:45:11;15.30;99.90
46766;DHT22;32527;51.986;5.842;2022-09-01T03:47:43;15.30;99.90
46766;DHT22;32527;51.986;5.842;2022-09-01T03:50:13;15.30;99.90
46766;DHT22;32527;51.986;5.842;2022-09-01T03:55:16;15.00;99.90
46766;DHT22;32527;51.986;5.842;2022-09-01T03:57:52;15.20;99.90
46766;DHT22;32527;51.986;5.842;2022-09-01T04:00:20;15.20;99.90
46766;DHT22;32527;51.986;5.842;2022-09-01T04:02:49;15.20;99.90
46766;DHT22;32527;51.986;5.842;2022-09-01T04:05:17;15.10;99.90
46766;DHT22;32527;51.986;5.842;2022-09-01T04:07:46;15.10;99.90
46766;DHT22;32527;51.986;5.842;2022-09-01T04:10:13;15.10;99.90
46766;DHT22;32527;51.986;5.842;2022-09-01T04:12:39;15.20;99.90
46766;DHT22;32527;51.986;5.842;2022-09-01T04:15:05;15.00;99.90
46766;DHT22;32527;51.986;5.842;2022-09-01T04:17:35;15.20;99.90
46766;DHT22;32527;51.986;5.842;2022-09-01T04:20:20;15.20;99.90
46766;DHT22;32527;51.986;5.842;2022-09-01T04:22:47;15.30;99.90
46766;DHT22;32527;51.986;5.842;2022-09-01T04:25:15;15.30;99.90
46766;DHT22;32527;51.986;5.842;2022-09-01T04:27:42;15.20;99.90
46766;DHT22;32527;51.986;5.842;2022-09-01T04:30:10;15.20;99.90
46766;DHT22;32527;51.986;5.842;2022-09-01T04:32:37;15.30;99.90
46766;DHT22;32527;51.986;5.842;2022-09-01T04:35:04;15.30;99.90
46766;DHT22;32527;51.986;5.842;2022-09-01T04:37:30;15.30;99.90
46766;DHT22;32527;51.986;5.842;2022-09-01T04:39:59;15.40;99.90
46766;DHT22;32527;51.986;5.842;2022-09-01T04:42:27;15.40;99.90
46766;DHT22;32527;51.986;5.842;2022-09-01T04:44:55;15.40;99.90
46766;DHT22;32527;51.986;5.842;2022-09-01T04:47:22;15.40;99.90
46766;DHT22;32527;51.986;5.842;2022-09-01T04:49:56;15.40;99.90
46766;DHT22;32527;51.986;5.842;2022-09-01T04:52:28;15.40;99.90
46766;DHT22;32527;51.986;5.842;2022-09-01T04:54:54;15.40;99.90
46766;DHT22;32527;51.986;5.842;2022-09-01T04:57:20;15.40;99.90
46766;DHT22;32527;51.986;5.842;2022-09-01T04:59:47;15.40;99.90
46766;DHT22;32527;51.986;5.842;2022-09-01T05:02:13;15.30;99.90
46766;DHT22;32527;51.986;5.842;2022-09-01T05:04:38;15.20;99.90
46766;DHT22;32527;51.986;5.842;2022-09-01T05:07:06;15.20;99.90
46766;DHT22;32527;51.986;5.842;2022-09-01T05:09:38;15.10;99.90
46766;DHT22;32527;51.986;5.842;2022-09-01T05:12:26;15.10;99.90
46766;DHT22;32527;51.986;5.842;2022-09-01T05:14:52;15.10;99.90
46766;DHT22;32527;51.986;5.842;2022-09-01T05:17:20;15.10;99.90
46766;DHT22;32527;51.986;5.842;2022-09-01T05:19:47;15.10;99.90
46766;DHT22;32527;51.986;5.842;2022-09-01T05:22:16;15.00;99.90
46766;DHT22;32527;51.986;5.842;2022-09-01T05:24:50;15.00;99.90
46766;DHT22;32527;51.986;5.842;2022-09-01T05:27:16;15.00;99.90
46766;DHT22;32527;51.986;5.842;2022-09-01T05:29:43;15.00;99.90
46766;DHT22;32527;51.986;5.842;2022-09-01T05:32:11;15.00;99.90
46766;DHT22;32527;51.986;5.842;2022-09-01T05:34:39;15.00;99.90
46766;DHT22;32527;51.986;5.842;2022-09-01T05:37:07;15.00;99.90
46766;DHT22;32527;51.986;5.842;2022-09-01T05:39:35;15.00;99.90
46766;DHT22;32527;51.986;5.842;2022-09-01T05:42:03;15.10;99.90
46766;DHT22;32527;51.986;5.842;2022-09-01T05:44:31;15.10;99.90
46766;DHT22;32527;51.986;5.842;2022-09-01T05:46:57;15.10;99.90
46766;DHT22;32527;51.986;5.842;2022-09-01T05:49:24;15.10;99.90
46766;DHT22;32527;51.986;5.842;2022-09-01T05:51:52;15.30;99.90
46766;DHT22;32527;51.986;5.842;2022-09-01T05:54:20;15.40;99.90
46766;DHT22;32527;51.986;5.842;2022-09-01T05:56:47;15.40;99.90
46766;DHT22;32527;51.986;5.842;2022-09-01T05:59:16;15.50;99.90
46766;DHT22;32527;51.986;5.842;2022-09-01T06:01:43;15.60;99.90
46766;DHT22;32527;51.986;5.842;2022-09-01T06:04:09;15.60;99.90
46766;DHT22;32527;51.986;5.842;2022-09-01T06:06:40;15.70;99.90
46766;DHT22;32527;51.986;5.842;2022-09-01T06:09:12;15.80;99.90
46766;DHT22;32527;51.986;5.842;2022-09-01T06:11:39;15.90;99.90
46766;DHT22;32527;51.986;5.842;2022-09-01T06:14:06;16.00;99.90
46766;DHT22;32527;51.986;5.842;2022-09-01T06:16:33;16.20;99.90
46766;DHT22;32527;51.986;5.842;2022-09-01T06:19:01;16.30;99.90
46766;DHT22;32527;51.986;5.842;2022-09-01T06:21:27;16.40;99.90
46766;DHT22;32527;51.986;5.842;2022-09-01T06:23:55;16.60;99.80
46766;DHT22;32527;51.986;5.842;2022-09-01T06:26:27;16.80;99.00
46766;DHT22;32527;51.986;5.842;2022-09-01T06:28:55;17.00;98.20
46766;DHT22;32527;51.986;5.842;2022-09-01T06:31:23;17.00;98.10
46766;DHT22;32527;51.986;5.842;2022-09-01T06:33:52;16.90;98.20
46766;DHT22;32527;51.986;5.842;2022-09-01T06:36:21;16.90;98.40
46766;DHT22;32527;51.986;5.842;2022-09-01T06:38:52;16.80;98.30
46766;DHT22;32527;51.986;5.842;2022-09-01T06:41:20;16.70;98.40
46766;DHT22;32527;51.986;5.842;2022-09-01T06:43:49;16.70;98.60
46766;DHT22;32527;51.986;5.842;2022-09-01T06:46:16;16.60;98.90
46766;DHT22;32527;51.986;5.842;2022-09-01T06:48:42;16.50;98.90
46766;DHT22;32527;51.986;5.842;2022-09-01T06:51:16;16.90;98.40
46766;DHT22;32527;51.986;5.842;2022-09-01T06:53:44;17.70;97.00
46766;DHT22;32527;51.986;5.842;2022-09-01T06:56:13;18.50;95.00
46766;DHT22;32527;51.986;5.842;2022-09-01T06:58:41;19.00;94.00
46766;DHT22;32527;51.986;5.842;2022-09-01T07:01:17;19.50;92.50
46766;DHT22;32527;51.986;5.842;2022-09-01T07:03:47;19.70;90.80
46766;DHT22;32527;51.986;5.842;2022-09-01T07:06:20;20.20;90.20
46766;DHT22;32527;51.986;5.842;2022-09-01T07:09:10;20.20;88.40
46766;DHT22;32527;51.986;5.842;2022-09-01T07:11:38;19.60;89.20
46766;DHT22;32527;51.986;5.842;2022-09-01T07:14:05;19.10;90.60
46766;DHT22;32527;51.986;5.842;2022-09-01T07:16:34;18.70;91.30
46766;DHT22;32527;51.986;5.842;2022-09-01T07:19:03;18.70;91.80
46766;DHT22;32527;51.986;5.842;2022-09-01T07:21:32;19.10;91.70
46766;DHT22;32527;51.986;5.842;2022-09-01T07:23:59;19.50;90.70
46766;DHT22;32527;51.986;5.842;2022-09-01T07:26:27;20.00;90.20
46766;DHT22;32527;51.986;5.842;2022-09-01T07:28:55;20.80;86.80
46766;DHT22;32527;51.986;5.842;2022-09-01T07:31:48;21.10;85.00
46766;DHT22;32527;51.986;5.842;2022-09-01T07:34:14;21.50;81.40
46766;DHT22;32527;51.986;5.842;2022-09-01T07:36:42;21.60;81.40
46766;DHT22;32527;51.986;5.842;2022-09-01T07:39:09;22.10;79.60
46766;DHT22;32527;51.986;5.842;2022-09-01T07:41:36;22.40;76.70
46766;DHT22;32527;51.986;5.842;2022-09-01T07:44:25;22.50;74.70
46766;DHT22;32527;51.986;5.842;2022-09-01T07:47:10;23.20;73.00
46766;DHT22;32527;51.986;5.842;2022-09-01T07:49:36;23.30;71.00
46766;DHT22;32527;51.986;5.842;2022-09-01T07:52:04;23.20;71.60
46766;DHT22;32527;51.986;5.842;2022-09-01T07:54:32;23.60;69.20
46766;DHT22;32527;51.986;5.842;2022-09-01T07:56:59;23.20;69.10
46766;DHT22;32527;51.986;5.842;2022-09-01T07:59:26;23.40;68.20
46766;DHT22;32527;51.986;5.842;2022-09-01T08:02:10;23.50;68.60
46766;DHT22;32527;51.986;5.842;2022-09-01T08:04:37;23.30;67.50
46766;DHT22;32527;51.986;5.842;2022-09-01T08:07:05;22.90;68.50
46766;DHT22;32527;51.986;5.842;2022-09-01T08:09:30;22.60;69.10
46766;DHT22;32527;51.986;5.842;2022-09-01T08:11:56;22.50;70.70
46766;DHT22;32527;51.986;5.842;2022-09-01T08:14:22;22.70;69.50
46766;DHT22;32527;51.986;5.842;2022-09-01T08:16:50;23.20;68.00
46766;DHT22;32527;51.986;5.842;2022-09-01T08:19:15;23.90;66.60
46766;DHT22;32527;51.986;5.842;2022-09-01T08:22:01;24.20;65.20
46766;DHT22;32527;51.986;5.842;2022-09-01T08:24:37;24.90;64.30
46766;DHT22;32527;51.986;5.842;2022-09-01T08:27:03;24.80;63.40
46766;DHT22;32527;51.986;5.842;2022-09-01T08:29:29;25.40;61.70
46766;DHT22;32527;51.986;5.842;2022-09-01T08:31:55;25.70;60.20
46766;DHT22;32527;51.986;5.842;2022-09-01T08:34:24;25.60;59.50
46766;DHT22;32527;51.986;5.842;2022-09-01T08:36:51;25.70;60.40
46766;DHT22;32527;51.986;5.842;2022-09-01T08:39:17;25.70;58.80
46766;DHT22;32527;51.986;5.842;2022-09-01T08:41:51;25.80;58.70
46766;DHT22;32527;51.986;5.842;2022-09-01T08:47:06;26.30;57.40
46766;DHT22;32527;51.986;5.842;2022-09-01T08:49:34;26.00;57.10
46766;DHT22;32527;51.986;5.842;2022-09-01T08:52:16;25.80;57.30
46766;DHT22;32527;51.986;5.842;2022-09-01T08:57:21;25.70;56.70
46766;DHT22;32527;51.986;5.842;2022-09-01T09:00:09;25.80;56.70
46766;DHT22;32527;51.986;5.842;2022-09-01T09:16:24;26.10;54.60
46766;DHT22;32527;51.986;5.842;2022-09-01T09:18:59;26.10;54.60
46766;DHT22;32527;51.986;5.842;2022-09-01T09:21:31;26.40;53.30
46766;DHT22;32527;51.986;5.842;2022-09-01T09:26:51;26.50;53.90
46766;DHT22;32527;51.986;5.842;2022-09-01T09:29:17;26.30;52.80
46766;DHT22;32527;51.986;5.842;2022-09-01T09:31:45;26.40;52.60
46766;DHT22;32527;51.986;5.842;2022-09-01T09:39:44;25.50;52.90
46766;DHT22;32527;51.986;5.842;2022-09-01T09:42:13;25.40;53.50
46766;DHT22;32527;51.986;5.842;2022-09-01T09:44:46;25.50;52.40
46766;DHT22;32527;51.986;5.842;2022-09-01T09:47:34;25.50;51.40
46766;DHT22;32527;51.986;5.842;2022-09-01T09:50:33;25.40;51.80
46766;DHT22;32527;51.986;5.842;2022-09-01T09:53:30;25.10;52.40
46766;DHT22;32527;51.986;5.842;2022-09-01T09:56:11;25.10;53.00
46766;DHT22;32527;51.986;5.842;2022-09-01T09:58:42;25.10;51.80
46766;DHT22;32527;51.986;5.842;2022-09-01T10:01:26;25.10;51.30
46766;DHT22;32527;51.986;5.842;2022-09-01T10:03:58;25.00;52.10
46766;DHT22;32527;51.986;5.842;2022-09-01T10:06:42;24.80;51.60
46766;DHT22;32527;51.986;5.842;2022-09-01T10:09:32;24.80;51.70
46766;DHT22;32527;51.986;5.842;2022-09-01T10:11:59;24.80;51.90
46766;DHT22;32527;51.986;5.842;2022-09-01T10:15:11;24.90;52.40
46766;DHT22;32527;51.986;5.842;2022-09-01T10:17:40;24.90;51.50
46766;DHT22;32527;51.986;5.842;2022-09-01T10:20:21;24.80;51.30
46766;DHT22;32527;51.986;5.842;2022-09-01T10:22:48;24.50;50.10
46766;DHT22;32527;51.986;5.842;2022-09-01T10:25:24;24.50;50.70
46766;DHT22;32527;51.986;5.842;2022-09-01T10:27:58;24.80;50.10
46766;DHT22;32527;51.986;5.842;2022-09-01T10:30:27;25.10;50.80
46766;DHT22;32527;51.986;5.842;2022-09-01T10:32:54;25.20;50.00
46766;DHT22;32527;51.986;5.842;2022-09-01T10:35:25;25.80;49.30
46766;DHT22;32527;51.986;5.842;2022-09-01T10:37:52;26.60;47.60
46766;DHT22;32527;51.986;5.842;2022-09-01T10:42:55;28.20;44.70
46766;DHT22;32527;51.986;5.842;2022-09-01T10:45:28;28.40;44.30
46766;DHT22;32527;51.986;5.842;2022-09-01T10:48:04;29.10;42.80
46766;DHT22;32527;51.986;5.842;2022-09-01T10:50:43;27.70;42.20
46766;DHT22;32527;51.986;5.842;2022-09-01T11:10:25;29.30;42.70
46766;DHT22;32527;51.986;5.842;2022-09-01T11:13:35;29.60;42.40
46766;DHT22;32527;51.986;5.842;2022-09-01T11:16:37;28.80;42.30
46766;DHT22;32527;51.986;5.842;2022-09-01T11:19:34;29.70;41.80
46766;DHT22;32527;51.986;5.842;2022-09-01T11:22:22;30.10;41.40
46766;DHT22;32527;51.986;5.842;2022-09-01T11:30:33;31.00;40.00
46766;DHT22;32527;51.986;5.842;2022-09-01T11:33:27;30.80;40.40
46766;DHT22;32527;51.986;5.842;2022-09-01T11:36:05;31.10;39.80
46766;DHT22;32527;51.986;5.842;2022-09-01T11:38:48;31.40;39.70
46766;DHT22;32527;51.986;5.842;2022-09-01T11:41:24;30.90;39.20
46766;DHT22;32527;51.986;5.842;2022-09-01T11:43:54;30.90;39.50
46766;DHT22;32527;51.986;5.842;2022-09-01T11:46:33;31.40;39.00
46766;DHT22;32527;51.986;5.842;2022-09-01T11:49:22;31.00;39.20
46766;DHT22;32527;51.986;5.842;2022-09-01T11:51:49;30.90;39.00
46766;DHT22;32527;51.986;5.842;2022-09-01T11:54:15;30.10;39.90
46766;DHT22;32527;51.986;5.842;2022-09-01T11:56:41;29.10;40.80
46766;DHT22;32527;51.986;5.842;2022-09-01T11:59:07;28.00;41.90
46766;DHT22;32527;51.986;5.842;2022-09-01T12:01:35;27.30;43.20
46766;DHT22;32527;51.986;5.842;2022-09-01T12:04:39;26.60;45.20
46766;DHT22;32527;51.986;5.842;2022-09-01T12:07:13;26.10;46.60
46766;DHT22;32527;51.986;5.842;2022-09-01T12:09:48;25.60;46.20
46766;DHT22;32527;51.986;5.842;2022-09-01T12:12:37;25.30;47.50
46766;DHT22;32527;51.986;5.842;2022-09-01T12:15:09;25.20;47.10
46766;DHT22;32527;51.986;5.842;2022-09-01T12:17:35;25.10;47.00
46766;DHT22;32527;51.986;5.842;2022-09-01T12:22:46;24.90;47.90
46766;DHT22;32527;51.986;5.842;2022-09-01T12:25:38;24.90;48.20
46766;DHT22;32527;51.986;5.842;2022-09-01T12:28:04;24.90;48.20
46766;DHT22;32527;51.986;5.842;2022-09-01T12:30:30;25.40;48.40
46766;DHT22;32527;51.986;5.842;2022-09-01T12:33:02;24.90;48.30
46766;DHT22;32527;51.986;5.842;2022-09-01T12:35:28;25.10;49.00
46766;DHT22;32527;51.986;5.842;2022-09-01T12:40:51;25.20;48.40
46766;DHT22;32527;51.986;5.842;2022-09-01T12:43:47;25.10;48.80
46766;DHT22;32527;51.986;5.842;2022-09-01T12:46:42;25.00;49.40
46766;DHT22;32527;51.986;5.842;2022-09-01T12:49:25;25.00;48.80
46766;DHT22;32527;51.986;5.842;2022-09-01T12:54:39;25.10;48.60
46766;DHT22;32527;51.986;5.842;2022-09-01T12:57:05;25.10;46.90
46766;DHT22;32527;51.986;5.842;2022-09-01T12:59:31;25.20;47.90
46766;DHT22;32527;51.986;5.842;2022-09-01T13:01:56;25.30;48.50
46766;DHT22;32527;51.986;5.842;2022-09-01T13:04:25;25.40;48.10
46766;DHT22;32527;51.986;5.842;2022-09-01T13:07:00;25.30;47.40
46766;DHT22;32527;51.986;5.842;2022-09-01T13:09:26;25.30;47.10
46766;DHT22;32527;51.986;5.842;2022-09-01T13:11:52;25.10;47.10
46766;DHT22;32527;51.986;5.842;2022-09-01T13:14:18;25.20;46.50
46766;DHT22;32527;51.986;5.842;2022-09-01T13:16:45;25.30;45.90
46766;DHT22;32527;51.986;5.842;2022-09-01T13:19:10;25.20;46.70
46766;DHT22;32527;51.986;5.842;2022-09-01T13:21:36;25.10;46.90
46766;DHT22;32527;51.986;5.842;2022-09-01T13:24:03;25.00;47.20
46766;DHT22;32527;51.986;5.842;2022-09-01T13:26:31;24.90;47.30
46766;DHT22;32527;51.986;5.842;2022-09-01T13:28:58;24.80;47.80
46766;DHT22;32527;51.986;5.842;2022-09-01T13:31:24;24.90;47.60
46766;DHT22;32527;51.986;5.842;2022-09-01T13:33:50;24.90;48.00
46766;DHT22;32527;51.986;5.842;2022-09-01T13:36:16;24.90;47.20
46766;DHT22;32527;51.986;5.842;2022-09-01T13:38:41;24.90;47.10
46766;DHT22;32527;51.986;5.842;2022-09-01T13:41:07;24.90;47.60
46766;DHT22;32527;51.986;5.842;2022-09-01T13:43:36;24.90;47.60
46766;DHT22;32527;51.986;5.842;2022-09-01T13:46:01;24.80;47.50
46766;DHT22;32527;51.986;5.842;2022-09-01T13:50:53;24.80;46.70
46766;DHT22;32527;51.986;5.842;2022-09-01T13:53:20;24.80;47.90
46766;DHT22;32527;51.986;5.842;2022-09-01T13:55:46;24.80;47.00
46766;DHT22;32527;51.986;5.842;2022-09-01T13:58:12;24.70;47.60
46766;DHT22;32527;51.986;5.842;2022-09-01T14:00:42;24.70;47.40
46766;DHT22;32527;51.986;5.842;2022-09-01T14:03:18;24.70;48.70
46766;DHT22;32527;51.986;5.842;2022-09-01T14:05:46;24.70;48.10
46766;DHT22;32527;51.986;5.842;2022-09-01T14:08:13;24.60;48.40
46766;DHT22;32527;51.986;5.842;2022-09-01T14:10:44;24.60;47.90
46766;DHT22;32527;51.986;5.842;2022-09-01T14:13:11;24.50;47.90
46766;DHT22;32527;51.986;5.842;2022-09-01T14:15:37;24.50;48.40
46766;DHT22;32527;51.986;5.842;2022-09-01T14:18:03;24.60;48.30
46766;DHT22;32527;51.986;5.842;2022-09-01T14:20:33;24.70;48.20
46766;DHT22;32527;51.986;5.842;2022-09-01T14:23:01;24.70;47.60
46766;DHT22;32527;51.986;5.842;2022-09-01T14:25:27;24.70;47.60
46766;DHT22;32527;51.986;5.842;2022-09-01T14:27:54;24.70;47.50
46766;DHT22;32527;51.986;5.842;2022-09-01T14:30:23;24.60;48.20
46766;DHT22;32527;51.986;5.842;2022-09-01T14:32:50;24.60;48.20
46766;DHT22;32527;51.986;5.842;2022-09-01T14:35:18;24.60;48.60
46766;DHT22;32527;51.986;5.842;2022-09-01T14:37:45;24.60;48.30
46766;DHT22;32527;51.986;5.842;2022-09-01T14:40:13;24.60;48.70
46766;DHT22;32527;51.986;5.842;2022-09-01T14:42:44;24.60;47.80
46766;DHT22;32527;51.986;5.842;2022-09-01T14:45:11;24.80;48.10
46766;DHT22;32527;51.986;5.842;2022-09-01T14:47:39;24.60;47.80
46766;DHT22;32527;51.986;5.842;2022-09-01T14:50:05;24.50;48.10
46766;DHT22;32527;51.986;5.842;2022-09-01T14:52:32;24.50;48.50
46766;DHT22;32527;51.986;5.842;2022-09-01T14:54:58;24.50;48.40
46766;DHT22;32527;51.986;5.842;2022-09-01T14:57:24;24.50;48.50
46766;DHT22;32527;51.986;5.842;2022-09-01T14:59:49;24.40;48.50
46766;DHT22;32527;51.986;5.842;2022-09-01T15:02:15;24.40;49.20
46766;DHT22;32527;51.986;5.842;2022-09-01T15:04:41;24.40;48.80
46766;DHT22;32527;51.986;5.842;2022-09-01T15:07:07;24.40;49.10
46766;DHT22;32527;51.986;5.842;2022-09-01T15:09:33;24.40;48.50
46766;DHT22;32527;51.986;5.842;2022-09-01T15:11:59;24.50;48.90
46766;DHT22;32527;51.986;5.842;2022-09-01T15:14:25;25.30;47.20
46766;DHT22;32527;51.986;5.842;2022-09-01T15:16:50;25.30;47.10
46766;DHT22;32527;51.986;5.842;2022-09-01T15:19:16;25.20;47.20
46766;DHT22;32527;51.986;5.842;2022-09-01T15:21:44;24.90;47.80
46766;DHT22;32527;51.986;5.842;2022-09-01T15:24:11;24.70;48.50
46766;DHT22;32527;51.986;5.842;2022-09-01T15:26:38;26.00;49.80
46766;DHT22;32527;51.986;5.842;2022-09-01T15:29:05;24.50;48.90
46766;DHT22;32527;51.986;5.842;2022-09-01T15:31:38;24.30;49.70
46766;DHT22;32527;51.986;5.842;2022-09-01T15:34:04;24.30;50.10
46766;DHT22;32527;51.986;5.842;2022-09-01T15:36:32;24.20;49.80
46766;DHT22;32527;51.986;5.842;2022-09-01T15:38:58;24.40;50.20
46766;DHT22;32527;51.986;5.842;2022-09-01T15:41:30;24.20;50.10
46766;DHT22;32527;51.986;5.842;2022-09-01T15:43:56;24.10;50.40
46766;DHT22;32527;51.986;5.842;2022-09-01T15:46:24;25.90;51.30
46766;DHT22;32527;51.986;5.842;2022-09-01T15:48:59;24.10;50.20
46766;DHT22;32527;51.986;5.842;2022-09-01T15:51:33;25.30;51.00
46766;DHT22;32527;51.986;5.842;2022-09-01T15:54:17;24.20;50.50
46766;DHT22;32527;51.986;5.842;2022-09-01T15:56:44;24.00;51.20
46766;DHT22;32527;51.986;5.842;2022-09-01T15:59:12;24.10;50.80
46766;DHT22;32527;51.986;5.842;2022-09-01T16:01:41;24.60;51.30
46766;DHT22;32527;51.986;5.842;2022-09-01T16:04:09;24.10;51.20
46766;DHT22;32527;51.986;5.842;2022-09-01T16:06:39;24.10;51.00
46766;DHT22;32527;51.986;5.842;2022-09-01T16:09:07;24.00;50.60
46766;DHT22;32527;51.986;5.842;2022-09-01T16:11:33;24.30;51.50
46766;DHT22;32527;51.986;5.842;2022-09-01T16:14:01;24.90;51.90
46766;DHT22;32527;51.986;5.842;2022-09-01T16:21:53;24.80;51.50
46766;DHT22;32527;51.986;5.842;2022-09-01T16:24:21;23.90;50.50
46766;DHT22;32527;51.986;5.842;2022-09-01T16:26:48;24.00;51.10
46766;DHT22;32527;51.986;5.842;2022-09-01T16:29:27;23.90;51.20
46766;DHT22;32527;51.986;5.842;2022-09-01T16:31:57;23.90;51.30
46766;DHT22;32527;51.986;5.842;2022-09-01T16:34:22;23.80;50.70
46766;DHT22;32527;51.986;5.842;2022-09-01T16:37:04;24.00;51.50
46766;DHT22;32527;51.986;5.842;2022-09-01T16:39:49;23.80;50.70
46766;DHT22;32527;51.986;5.842;2022-09-01T16:48:17;23.70;51.00
46766;DHT22;32527;51.986;5.842;2022-09-01T16:50:49;23.70;50.90
46766;DHT22;32527;51.986;5.842;2022-09-01T16:56:49;23.60;51.00
46766;DHT22;32527;51.986;5.842;2022-09-01T16:59:23;23.60;51.30
46766;DHT22;32527;51.986;5.842;2022-09-01T17:04:41;24.20;51.50
46766;DHT22;32527;51.986;5.842;2022-09-01T17:13:17;23.40;50.50
46766;DHT22;32527;51.986;5.842;2022-09-01T17:15:49;23.40;50.70
46766;DHT22;32527;51.986;5.842;2022-09-01T17:18:41;23.40;50.60
46766;DHT22;32527;51.986;5.842;2022-09-01T17:21:32;23.30;50.60
46766;DHT22;32527;51.986;5.842;2022-09-01T17:24:22;23.30;51.00
46766;DHT22;32527;51.986;5.842;2022-09-01T17:26:55;23.20;51.70